Historyczne dane pomiarowe

Dodano dane terminowe – wersja testowa.

Dane z okresu 1951-2019

Wersja bazy: 1.34 [2019-03-16, lista zmian], aktualizacja planowana na 2019-04-15

Dane meteo z obszaru Polski uzyskane na podstawie danych udostępnionych przez Instytut Meteorologii i Gospodarki Wodnej – Państwowy Instytut Badawczy.

 

Wybierz Datę:    

       

TemperaturaWilgotnośćWiatrCiśnienieOpadyŚniegCzas trwania zjawisk
 Stacja t tx tn tng RH VA  wxwx mslp ppp RRR   cm mm wxwxwxwxwxwxwx
1987-08-14 15.3 21.6 7.9- 72.5- 2.3 1.7---- 0.0------------
1987-08-13 12.3 18.5 5.3- 70.0- 4.3 1.3---- 0.0------------
1987-08-12 13.0 18.2 6.0- 71.3- 2.7 0.3---- 0.0------------
1987-08-11 14.5 18.5 11.8- 70.3- 4.0 1.3---- 0.4------------
1987-08-10 16.3 19.2 13.5- 78.3- 4.7 1.3---- 9.8------------
1987-08-09 15.5 23.5 6.3- 64.5- 1.3 2.7---- 0.0------------
1987-08-08 14.5 19.2 10.0- 67.3- 3.7 0.7---- 0.0------------
1987-08-07 12.7 17.5 5.3- 72.3- 2.7 1.0---- 0.2------------
1987-08-06 11.4 16.0 8.9- 79.5- 4.7 1.0---- 2.7------------
1987-08-05 14.1 17.6 10.0- 74.0- 3.7 0.0---- 0.5------------
1987-08-04 14.7 19.4 10.0- 88.0- 3.7 1.0---- 0.5------------
1987-08-03 15.3 19.7 11.5- 77.3- 3.7 0.7---- 0.0------------
1987-08-02 15.8 18.8 13.5- 78.5- 5.3 1.0---- 2.0------------
1987-08-01 16.1 22.2 10.0- 73.3- 2.0 1.3---- 3.9------------
1987-07-31 17.6 22.2 13.0- 70.0- 5.3 1.0---- 14.5------------
1987-07-30 17.3 23.4 11.5- 68.8- 3.3 2.7---- 0.0------------
1987-07-29 14.3 19.5 10.0- 73.8- 4.7 0.3---- 0.0------------
1987-07-28 13.3 16.0 12.0- 79.8- 6.0 2.0---- 13.4------------
1987-07-27 13.4 18.5 8.9- 70.0- 4.3 2.3---- 0.3------------
1987-07-26 15.2 17.6 12.3- 90.5- 6.0 2.3---- 17.7------------
1987-07-25 18.6 24.5 15.0- 87.3- 7.3 1.7---- 3.0------------
1987-07-24 21.8 28.3 16.0- 76.8- 4.0 1.7---- 2.0------------
1987-07-23 21.4 28.1 15.0- 74.8- 3.0 1.0---- 2.3------------
1987-07-22 20.2 25.0 15.0- 83.3- 3.3 1.7---- 0.1------------
1987-07-21 20.8 26.0 13.5- 75.5- 2.0 1.3---- 0.0------------
1987-07-20 21.8 26.5 17.2- 76.5- 2.7 1.0---- 0.0------------
1987-07-19 24.7 31.0 17.5- 73.5- 3.7 1.3---- 3.4------------
1987-07-18 23.3 29.5 16.5- 72.0- 0.0 1.0---- 0.0------------
1987-07-17 22.5 28.5 14.0- 64.3- 2.0 2.3---- 0.0------------
1987-07-16 18.0 27.9 9.7- 76.5- 0.0 1.0---- 0.0------------
1987-07-15 14.4 22.1 7.1- 71.8- 1.3 1.7---- 0.0------------
1987-07-14 17.0 21.2 11.5- 67.8- 2.7 1.3---- 0.0------------
1987-07-13 19.7 24.3 15.5- 73.8- 3.0 1.3---- 0.0------------
1987-07-12 20.8 28.9 11.0- 62.3- 0.3 1.3---- 7.8------------
1987-07-11 16.7 23.7 7.9- 70.0- 0.0 1.0---- 0.0------------
1987-07-10 15.5 19.0 12.6- 68.3- 3.0 2.7---- 0.0------------
1987-07-09 20.8 26.0 16.2- 67.8- 3.7 2.0---- 16.4------------
1987-07-08 20.0 27.4 9.2- 60.8- 0.0 3.0---- 0.0------------
1987-07-07 17.5 25.4 6.9- 65.3- 0.0 1.3---- 0.0------------
1987-07-06 16.6 21.6 8.4- 66.3- 0.3 1.7---- 0.0------------
1987-07-05 15.6 20.6 13.0- 82.8- 5.3 2.3---- 3.8------------
1987-07-04 19.5 27.7 16.0- 64.3- 4.7 2.0---- 0.0------------
1987-07-03 18.8 22.1 16.5- 73.5- 4.7 1.7---- 0.0------------
1987-07-02 21.2 27.1 18.6- 81.0- 4.7 0.7---- 0.0------------
1987-07-01 24.4 30.6 15.5- 70.5- 0.3 1.0---- 0.0------------
1987-06-30 22.7 29.1 13.5- 71.5- 0.0 0.3---- 0.0------------
1987-06-29 20.7 25.2 14.5- 69.5- 1.3 1.3---- 0.0------------
1987-06-28 19.3 25.0 13.5- 74.3- 3.7 0.7---- 0.0------------
1987-06-27 19.4 24.4 13.2- 67.0- 2.7 1.0---- 0.6------------
1987-06-26 16.4 23.0 6.9- 67.5- 2.7 2.0---- 0.0------------
1987-06-25 16.2 20.0 12.5- 72.5- 4.7 1.0---- 1.2------------
1987-06-24 18.2 21.2 11.5- 66.8- 4.7 1.3---- 0.0------------
1987-06-23 16.2 20.5 13.5- 79.0- 4.3 1.0---- 0.0------------
1987-06-22 15.5 22.4 11.0- 81.3- 5.3 1.0---- 2.4------------
1987-06-21 17.6 23.2 7.8- 71.5- 1.3 2.0---- 0.0------------
1987-06-20 15.6 23.0 5.3- 61.0- 2.0 0.7---- 0.0------------
1987-06-19 12.6 18.5 7.5- 70.8- 3.3 0.7---- 0.0------------
1987-06-18 10.6 18.1 5.3- 79.8- 4.0 1.0---- 3.8------------
1987-06-17 12.1 15.5 10.3- 77.3- 5.3 1.0---- 1.0------------
1987-06-16 17.3 22.1 12.1- 74.8- 5.3 3.7---- 7.7------------
454.5 ms

 

Źródłem pochodzenia danych jest Instytut Meteorologii i Gospodarki Wodnej – Państwowy Instytut Badawczy. Dane Instytutu Meteorologii i Gospodarki Wodnej – Państwowego Instytutu Badawczego zostały przetworzone.

Dane źródłowe można odnaleźć na stronie https://dane.imgw.pl